TXKF/BDA METAR and TAF weather

Enter ICAO airport designator
Station Type Date Time Source
TXKF METAR 2018/12/15 02:55 UTC NOAA

TXKF 150255Z 12013KT 9999 SCT035 19/12 Q1031


Station Type Date Time Source
TXKF Decoded METAR 2018/12/15 02:55 UTC NOAA

Bermuda, Bermuda (TXKF) 32-22N 064-41W
Dec 14, 2018 - 09:55 PM EST / 2018.12.15 0255 UTC
Wind: from the ESE (120 degrees) at 15 MPH (13 KT):0
Visibility: greater than 7 mile(s):0
Sky conditions: partly cloudy
Temperature: 66 F (19 C)
Dew Point: 53 F (12 C)
Relative Humidity: 63%
Pressure (altimeter): 30.45 in. Hg (1031 hPa)
ob: TXKF 150255Z 12013KT 9999 SCT035 19/12 Q1031
cycle: 3

Station Type Date Time Source
TXKF TAF 2018/12/14 18:57 UTC NOAA

TAF TXKF 141738Z 1418/1518 11010KT 9999 FEW035 SCT300
BECMG 1506/1509 16014KT


Example: see airport list